sensor_id;sensor_type;location;lat;lon;timestamp;temperature;humidity
20246;DHT22;10281;54.406;18.556;2024-01-10T00:00:55;0.40;99.90
20246;DHT22;10281;54.406;18.556;2024-01-10T00:03:22;0.40;99.90
20246;DHT22;10281;54.406;18.556;2024-01-10T00:05:48;0.40;99.90
20246;DHT22;10281;54.406;18.556;2024-01-10T00:08:15;0.40;99.90
20246;DHT22;10281;54.406;18.556;2024-01-10T00:10:42;0.40;99.90
20246;DHT22;10281;54.406;18.556;2024-01-10T00:13:08;0.40;99.90
20246;DHT22;10281;54.406;18.556;2024-01-10T00:15:35;0.40;99.90
20246;DHT22;10281;54.406;18.556;2024-01-10T00:18:01;0.40;99.90
20246;DHT22;10281;54.406;18.556;2024-01-10T00:20:28;0.40;99.90
20246;DHT22;10281;54.406;18.556;2024-01-10T00:22:54;0.50;99.90
20246;DHT22;10281;54.406;18.556;2024-01-10T00:25:21;0.40;99.90
20246;DHT22;10281;54.406;18.556;2024-01-10T00:27:48;0.50;99.90
20246;DHT22;10281;54.406;18.556;2024-01-10T00:30:14;0.40;99.90
20246;DHT22;10281;54.406;18.556;2024-01-10T00:32:41;0.50;99.90
20246;DHT22;10281;54.406;18.556;2024-01-10T00:35:07;0.50;99.90
20246;DHT22;10281;54.406;18.556;2024-01-10T00:37:34;0.50;99.90
20246;DHT22;10281;54.406;18.556;2024-01-10T00:40:01;0.50;99.90
20246;DHT22;10281;54.406;18.556;2024-01-10T00:42:28;0.60;99.90
20246;DHT22;10281;54.406;18.556;2024-01-10T00:44:55;0.60;99.90
20246;DHT22;10281;54.406;18.556;2024-01-10T00:47:21;0.60;99.90
20246;DHT22;10281;54.406;18.556;2024-01-10T00:49:48;0.70;99.90
20246;DHT22;10281;54.406;18.556;2024-01-10T00:52:15;0.60;99.90
20246;DHT22;10281;54.406;18.556;2024-01-10T00:54:41;0.60;99.90
20246;DHT22;10281;54.406;18.556;2024-01-10T00:57:10;0.70;99.90
20246;DHT22;10281;54.406;18.556;2024-01-10T00:59:36;0.60;99.90
20246;DHT22;10281;54.406;18.556;2024-01-10T01:02:03;0.70;99.90
20246;DHT22;10281;54.406;18.556;2024-01-10T01:04:30;0.70;99.90
20246;DHT22;10281;54.406;18.556;2024-01-10T01:06:57;0.70;99.90
20246;DHT22;10281;54.406;18.556;2024-01-10T01:09:23;0.70;99.90
20246;DHT22;10281;54.406;18.556;2024-01-10T01:11:51;0.80;99.90
20246;DHT22;10281;54.406;18.556;2024-01-10T01:14:17;0.70;99.90
20246;DHT22;10281;54.406;18.556;2024-01-10T01:16:44;0.70;99.90
20246;DHT22;10281;54.406;18.556;2024-01-10T01:19:10;0.80;99.90
20246;DHT22;10281;54.406;18.556;2024-01-10T01:21:37;0.80;99.90
20246;DHT22;10281;54.406;18.556;2024-01-10T01:24:04;0.80;99.90
20246;DHT22;10281;54.406;18.556;2024-01-10T01:26:30;0.80;99.90
20246;DHT22;10281;54.406;18.556;2024-01-10T01:28:57;0.90;99.90
20246;DHT22;10281;54.406;18.556;2024-01-10T01:31:24;0.90;99.90
20246;DHT22;10281;54.406;18.556;2024-01-10T01:33:50;0.90;99.90
20246;DHT22;10281;54.406;18.556;2024-01-10T01:36:17;0.90;99.90
20246;DHT22;10281;54.406;18.556;2024-01-10T01:38:44;0.90;99.90
20246;DHT22;10281;54.406;18.556;2024-01-10T01:41:11;1.00;99.90
20246;DHT22;10281;54.406;18.556;2024-01-10T01:43:38;1.00;99.90
20246;DHT22;10281;54.406;18.556;2024-01-10T01:46:05;1.00;99.90
20246;DHT22;10281;54.406;18.556;2024-01-10T01:48:32;1.00;99.90
20246;DHT22;10281;54.406;18.556;2024-01-10T01:51:01;1.00;99.90
20246;DHT22;10281;54.406;18.556;2024-01-10T01:53:29;1.10;99.90
20246;DHT22;10281;54.406;18.556;2024-01-10T01:55:56;1.00;99.90
20246;DHT22;10281;54.406;18.556;2024-01-10T01:58:24;1.00;99.90
20246;DHT22;10281;54.406;18.556;2024-01-10T02:00:52;1.10;99.90
20246;DHT22;10281;54.406;18.556;2024-01-10T02:03:18;1.10;99.90
20246;DHT22;10281;54.406;18.556;2024-01-10T02:05:46;1.10;99.90
20246;DHT22;10281;54.406;18.556;2024-01-10T02:08:14;1.10;99.90
20246;DHT22;10281;54.406;18.556;2024-01-10T02:10:41;1.10;99.90
20246;DHT22;10281;54.406;18.556;2024-01-10T02:13:07;1.10;99.90
20246;DHT22;10281;54.406;18.556;2024-01-10T02:15:37;1.10;99.90
20246;DHT22;10281;54.406;18.556;2024-01-10T02:18:04;1.10;99.90
20246;DHT22;10281;54.406;18.556;2024-01-10T02:20:32;1.10;99.90
20246;DHT22;10281;54.406;18.556;2024-01-10T02:22:58;1.10;99.90
20246;DHT22;10281;54.406;18.556;2024-01-10T02:25:25;1.10;99.90
20246;DHT22;10281;54.406;18.556;2024-01-10T02:27:51;1.10;99.90
20246;DHT22;10281;54.406;18.556;2024-01-10T02:30:18;1.20;99.90
20246;DHT22;10281;54.406;18.556;2024-01-10T02:32:44;1.20;99.90
20246;DHT22;10281;54.406;18.556;2024-01-10T02:35:11;1.20;99.90
20246;DHT22;10281;54.406;18.556;2024-01-10T02:37:38;1.30;99.90
20246;DHT22;10281;54.406;18.556;2024-01-10T02:40:05;1.30;99.90
20246;DHT22;10281;54.406;18.556;2024-01-10T02:42:32;1.30;99.90
20246;DHT22;10281;54.406;18.556;2024-01-10T02:44:59;1.30;99.90
20246;DHT22;10281;54.406;18.556;2024-01-10T02:47:25;1.30;99.90
20246;DHT22;10281;54.406;18.556;2024-01-10T02:49:52;1.40;99.90
20246;DHT22;10281;54.406;18.556;2024-01-10T02:52:19;1.40;99.90
20246;DHT22;10281;54.406;18.556;2024-01-10T02:54:46;1.40;99.90
20246;DHT22;10281;54.406;18.556;2024-01-10T02:57:13;1.30;99.90
20246;DHT22;10281;54.406;18.556;2024-01-10T02:59:39;1.30;99.90
20246;DHT22;10281;54.406;18.556;2024-01-10T03:02:06;1.30;99.90
20246;DHT22;10281;54.406;18.556;2024-01-10T03:04:32;1.30;99.90
20246;DHT22;10281;54.406;18.556;2024-01-10T03:06:59;1.30;99.90
20246;DHT22;10281;54.406;18.556;2024-01-10T03:09:26;1.30;99.90
20246;DHT22;10281;54.406;18.556;2024-01-10T03:11:52;1.40;99.90
20246;DHT22;10281;54.406;18.556;2024-01-10T03:14:19;1.30;99.90
20246;DHT22;10281;54.406;18.556;2024-01-10T03:16:46;1.40;99.90
20246;DHT22;10281;54.406;18.556;2024-01-10T03:19:12;1.40;99.90
20246;DHT22;10281;54.406;18.556;2024-01-10T03:21:39;1.40;99.90
20246;DHT22;10281;54.406;18.556;2024-01-10T03:24:06;1.40;99.90
20246;DHT22;10281;54.406;18.556;2024-01-10T03:26:34;1.40;99.90
20246;DHT22;10281;54.406;18.556;2024-01-10T03:29:00;1.40;99.90
20246;DHT22;10281;54.406;18.556;2024-01-10T03:31:28;1.40;99.90
20246;DHT22;10281;54.406;18.556;2024-01-10T03:33:57;1.40;99.90
20246;DHT22;10281;54.406;18.556;2024-01-10T03:36:24;1.40;99.90
20246;DHT22;10281;54.406;18.556;2024-01-10T03:38:51;1.40;99.90
20246;DHT22;10281;54.406;18.556;2024-01-10T03:41:19;1.40;99.90
20246;DHT22;10281;54.406;18.556;2024-01-10T03:43:46;1.40;99.90
20246;DHT22;10281;54.406;18.556;2024-01-10T03:46:13;1.40;99.90
20246;DHT22;10281;54.406;18.556;2024-01-10T03:48:40;1.30;99.90
20246;DHT22;10281;54.406;18.556;2024-01-10T03:51:09;1.40;99.90
20246;DHT22;10281;54.406;18.556;2024-01-10T03:53:35;1.30;99.90
20246;DHT22;10281;54.406;18.556;2024-01-10T03:56:04;1.40;99.90
20246;DHT22;10281;54.406;18.556;2024-01-10T03:58:31;1.40;99.90
20246;DHT22;10281;54.406;18.556;2024-01-10T04:00:57;1.40;99.90
20246;DHT22;10281;54.406;18.556;2024-01-10T04:03:24;1.40;99.90
20246;DHT22;10281;54.406;18.556;2024-01-10T04:05:51;1.40;99.90
20246;DHT22;10281;54.406;18.556;2024-01-10T04:08:17;1.40;99.90
20246;DHT22;10281;54.406;18.556;2024-01-10T04:10:44;1.40;99.90
20246;DHT22;10281;54.406;18.556;2024-01-10T04:13:10;1.40;99.90
20246;DHT22;10281;54.406;18.556;2024-01-10T04:15:37;1.40;99.90
20246;DHT22;10281;54.406;18.556;2024-01-10T04:18:04;1.40;99.90
20246;DHT22;10281;54.406;18.556;2024-01-10T04:20:31;1.40;99.90
20246;DHT22;10281;54.406;18.556;2024-01-10T04:22:57;1.40;99.90
20246;DHT22;10281;54.406;18.556;2024-01-10T04:25:24;1.40;99.90
20246;DHT22;10281;54.406;18.556;2024-01-10T04:27:51;1.40;99.90
20246;DHT22;10281;54.406;18.556;2024-01-10T04:30:17;1.40;99.90
20246;DHT22;10281;54.406;18.556;2024-01-10T04:32:44;1.50;99.90
20246;DHT22;10281;54.406;18.556;2024-01-10T04:35:11;1.40;99.90
20246;DHT22;10281;54.406;18.556;2024-01-10T04:37:37;1.50;99.90
20246;DHT22;10281;54.406;18.556;2024-01-10T04:40:05;1.50;99.90
20246;DHT22;10281;54.406;18.556;2024-01-10T04:42:31;1.50;99.90
20246;DHT22;10281;54.406;18.556;2024-01-10T04:44:58;1.50;99.90
20246;DHT22;10281;54.406;18.556;2024-01-10T04:47:25;1.50;99.90
20246;DHT22;10281;54.406;18.556;2024-01-10T04:49:51;1.40;99.90
20246;DHT22;10281;54.406;18.556;2024-01-10T04:52:18;1.40;99.90
20246;DHT22;10281;54.406;18.556;2024-01-10T04:54:45;1.40;99.90
20246;DHT22;10281;54.406;18.556;2024-01-10T04:57:11;1.40;99.90
20246;DHT22;10281;54.406;18.556;2024-01-10T04:59:38;1.30;99.90
20246;DHT22;10281;54.406;18.556;2024-01-10T05:02:04;1.30;99.90
20246;DHT22;10281;54.406;18.556;2024-01-10T05:04:32;1.40;99.90
20246;DHT22;10281;54.406;18.556;2024-01-10T05:06:58;1.40;99.90
20246;DHT22;10281;54.406;18.556;2024-01-10T05:09:25;1.40;99.90
20246;DHT22;10281;54.406;18.556;2024-01-10T05:11:51;1.40;99.90
20246;DHT22;10281;54.406;18.556;2024-01-10T05:14:19;1.50;99.90
20246;DHT22;10281;54.406;18.556;2024-01-10T05:16:47;1.40;99.90
20246;DHT22;10281;54.406;18.556;2024-01-10T05:19:14;1.40;99.90
20246;DHT22;10281;54.406;18.556;2024-01-10T05:21:40;1.30;99.90
20246;DHT22;10281;54.406;18.556;2024-01-10T05:24:07;1.30;99.90
20246;DHT22;10281;54.406;18.556;2024-01-10T05:26:34;1.30;99.90
20246;DHT22;10281;54.406;18.556;2024-01-10T05:29:01;1.40;99.90
20246;DHT22;10281;54.406;18.556;2024-01-10T05:31:28;1.40;99.90
20246;DHT22;10281;54.406;18.556;2024-01-10T05:33:54;1.30;99.90
20246;DHT22;10281;54.406;18.556;2024-01-10T05:36:22;1.40;99.90
20246;DHT22;10281;54.406;18.556;2024-01-10T05:38:49;1.40;99.90
20246;DHT22;10281;54.406;18.556;2024-01-10T05:41:15;1.40;99.90
20246;DHT22;10281;54.406;18.556;2024-01-10T05:43:42;1.40;99.90
20246;DHT22;10281;54.406;18.556;2024-01-10T05:46:09;1.40;99.90
20246;DHT22;10281;54.406;18.556;2024-01-10T05:48:36;1.40;99.90
20246;DHT22;10281;54.406;18.556;2024-01-10T05:51:03;1.50;99.90
20246;DHT22;10281;54.406;18.556;2024-01-10T05:53:30;1.40;99.90
20246;DHT22;10281;54.406;18.556;2024-01-10T05:55:57;1.50;99.90
20246;DHT22;10281;54.406;18.556;2024-01-10T05:58:23;1.50;99.90
20246;DHT22;10281;54.406;18.556;2024-01-10T06:00:50;1.50;99.90
20246;DHT22;10281;54.406;18.556;2024-01-10T06:03:17;1.40;99.90
20246;DHT22;10281;54.406;18.556;2024-01-10T06:05:44;1.40;99.90
20246;DHT22;10281;54.406;18.556;2024-01-10T06:08:11;1.40;99.90
20246;DHT22;10281;54.406;18.556;2024-01-10T06:10:37;1.40;99.90
20246;DHT22;10281;54.406;18.556;2024-01-10T06:13:04;1.40;99.90
20246;DHT22;10281;54.406;18.556;2024-01-10T06:15:30;1.40;99.90
20246;DHT22;10281;54.406;18.556;2024-01-10T06:17:57;1.40;99.90
20246;DHT22;10281;54.406;18.556;2024-01-10T06:20:24;1.40;99.90
20246;DHT22;10281;54.406;18.556;2024-01-10T06:22:50;1.40;99.90
20246;DHT22;10281;54.406;18.556;2024-01-10T06:25:17;1.40;99.90
20246;DHT22;10281;54.406;18.556;2024-01-10T06:27:44;1.40;99.90
20246;DHT22;10281;54.406;18.556;2024-01-10T06:30:11;1.40;99.90
20246;DHT22;10281;54.406;18.556;2024-01-10T06:32:38;1.30;99.90
20246;DHT22;10281;54.406;18.556;2024-01-10T06:35:05;1.30;99.90
20246;DHT22;10281;54.406;18.556;2024-01-10T06:37:31;1.30;99.90
20246;DHT22;10281;54.406;18.556;2024-01-10T06:39:58;1.30;99.90
20246;DHT22;10281;54.406;18.556;2024-01-10T06:42:25;1.40;99.90
20246;DHT22;10281;54.406;18.556;2024-01-10T06:44:52;1.40;99.90
20246;DHT22;10281;54.406;18.556;2024-01-10T06:47:18;1.30;99.90
20246;DHT22;10281;54.406;18.556;2024-01-10T06:49:47;1.40;99.90
20246;DHT22;10281;54.406;18.556;2024-01-10T06:52:14;1.40;99.90
20246;DHT22;10281;54.406;18.556;2024-01-10T06:54:40;1.40;99.90
20246;DHT22;10281;54.406;18.556;2024-01-10T06:57:07;1.50;99.90
20246;DHT22;10281;54.406;18.556;2024-01-10T06:59:33;1.50;99.90
20246;DHT22;10281;54.406;18.556;2024-01-10T07:02:00;1.50;99.90
20246;DHT22;10281;54.406;18.556;2024-01-10T07:04:27;1.50;99.90
20246;DHT22;10281;54.406;18.556;2024-01-10T07:06:54;1.40;99.90
20246;DHT22;10281;54.406;18.556;2024-01-10T07:09:20;1.40;99.90
20246;DHT22;10281;54.406;18.556;2024-01-10T07:11:48;1.40;99.90
20246;DHT22;10281;54.406;18.556;2024-01-10T07:14:15;1.40;99.90
20246;DHT22;10281;54.406;18.556;2024-01-10T07:16:42;1.50;99.90
20246;DHT22;10281;54.406;18.556;2024-01-10T07:19:11;1.40;99.90
20246;DHT22;10281;54.406;18.556;2024-01-10T07:21:40;1.40;99.90
20246;DHT22;10281;54.406;18.556;2024-01-10T07:24:08;1.40;99.90
20246;DHT22;10281;54.406;18.556;2024-01-10T07:26:36;1.40;99.90
20246;DHT22;10281;54.406;18.556;2024-01-10T07:29:03;1.50;99.90
20246;DHT22;10281;54.406;18.556;2024-01-10T07:31:32;1.50;99.90
20246;DHT22;10281;54.406;18.556;2024-01-10T07:33:59;1.40;99.90
20246;DHT22;10281;54.406;18.556;2024-01-10T07:36:26;1.40;99.90
20246;DHT22;10281;54.406;18.556;2024-01-10T07:38:53;1.50;99.90
20246;DHT22;10281;54.406;18.556;2024-01-10T07:41:19;1.50;99.90
20246;DHT22;10281;54.406;18.556;2024-01-10T07:43:46;1.40;99.90
20246;DHT22;10281;54.406;18.556;2024-01-10T07:46:13;1.40;99.90
20246;DHT22;10281;54.406;18.556;2024-01-10T07:48:39;1.40;99.90
20246;DHT22;10281;54.406;18.556;2024-01-10T07:51:06;1.50;99.90
20246;DHT22;10281;54.406;18.556;2024-01-10T07:53:33;1.50;99.90
20246;DHT22;10281;54.406;18.556;2024-01-10T07:56:00;1.50;99.90
20246;DHT22;10281;54.406;18.556;2024-01-10T07:58:26;1.50;99.90
20246;DHT22;10281;54.406;18.556;2024-01-10T08:00:53;1.50;99.90
20246;DHT22;10281;54.406;18.556;2024-01-10T08:03:20;1.50;99.90
20246;DHT22;10281;54.406;18.556;2024-01-10T08:05:46;1.60;99.90
20246;DHT22;10281;54.406;18.556;2024-01-10T08:08:13;1.50;99.90
20246;DHT22;10281;54.406;18.556;2024-01-10T08:10:41;1.50;99.90
20246;DHT22;10281;54.406;18.556;2024-01-10T08:13:07;1.50;99.90
20246;DHT22;10281;54.406;18.556;2024-01-10T08:15:34;1.50;99.90
20246;DHT22;10281;54.406;18.556;2024-01-10T08:18:00;1.50;99.90
20246;DHT22;10281;54.406;18.556;2024-01-10T08:20:29;1.60;99.90
20246;DHT22;10281;54.406;18.556;2024-01-10T08:22:55;1.60;99.90
20246;DHT22;10281;54.406;18.556;2024-01-10T08:25:23;1.60;99.90
20246;DHT22;10281;54.406;18.556;2024-01-10T08:27:51;1.60;99.90
20246;DHT22;10281;54.406;18.556;2024-01-10T08:30:19;1.60;99.90
20246;DHT22;10281;54.406;18.556;2024-01-10T08:32:47;1.60;99.90
20246;DHT22;10281;54.406;18.556;2024-01-10T08:38:00;1.70;99.90
20246;DHT22;10281;54.406;18.556;2024-01-10T08:40:29;1.70;99.90
20246;DHT22;10281;54.406;18.556;2024-01-10T08:42:55;1.80;99.90
20246;DHT22;10281;54.406;18.556;2024-01-10T08:45:22;1.80;99.90
20246;DHT22;10281;54.406;18.556;2024-01-10T08:47:50;1.80;99.90
20246;DHT22;10281;54.406;18.556;2024-01-10T08:50:17;1.80;99.90
20246;DHT22;10281;54.406;18.556;2024-01-10T08:52:43;1.80;99.90
20246;DHT22;10281;54.406;18.556;2024-01-10T08:55:10;1.80;99.90
20246;DHT22;10281;54.406;18.556;2024-01-10T08:57:37;1.80;99.90
20246;DHT22;10281;54.406;18.556;2024-01-10T09:00:04;1.80;99.90
20246;DHT22;10281;54.406;18.556;2024-01-10T09:02:33;1.80;99.90
20246;DHT22;10281;54.406;18.556;2024-01-10T09:05:01;1.80;99.90
20246;DHT22;10281;54.406;18.556;2024-01-10T09:07:29;1.80;99.90
20246;DHT22;10281;54.406;18.556;2024-01-10T09:09:56;1.80;99.90
20246;DHT22;10281;54.406;18.556;2024-01-10T09:12:23;1.70;99.90
20246;DHT22;10281;54.406;18.556;2024-01-10T09:14:50;1.70;99.90
20246;DHT22;10281;54.406;18.556;2024-01-10T09:17:16;1.70;99.90
20246;DHT22;10281;54.406;18.556;2024-01-10T09:19:43;1.80;99.90
20246;DHT22;10281;54.406;18.556;2024-01-10T09:22:09;1.80;99.90
20246;DHT22;10281;54.406;18.556;2024-01-10T09:24:36;1.80;99.90
20246;DHT22;10281;54.406;18.556;2024-01-10T09:27:03;1.80;99.90
20246;DHT22;10281;54.406;18.556;2024-01-10T09:29:29;1.70;99.90
20246;DHT22;10281;54.406;18.556;2024-01-10T09:31:57;1.70;99.90
20246;DHT22;10281;54.406;18.556;2024-01-10T09:34:24;1.70;99.90
20246;DHT22;10281;54.406;18.556;2024-01-10T09:36:50;1.80;99.90
20246;DHT22;10281;54.406;18.556;2024-01-10T09:39:18;1.70;99.90
20246;DHT22;10281;54.406;18.556;2024-01-10T09:41:46;1.80;99.90
20246;DHT22;10281;54.406;18.556;2024-01-10T09:44:15;1.90;99.90
20246;DHT22;10281;54.406;18.556;2024-01-10T09:46:48;1.80;99.90
20246;DHT22;10281;54.406;18.556;2024-01-10T09:49:14;1.90;99.90
20246;DHT22;10281;54.406;18.556;2024-01-10T09:51:41;1.90;99.90
20246;DHT22;10281;54.406;18.556;2024-01-10T09:54:08;2.00;99.90
20246;DHT22;10281;54.406;18.556;2024-01-10T09:56:35;2.00;99.90
20246;DHT22;10281;54.406;18.556;2024-01-10T09:59:02;2.10;99.90
20246;DHT22;10281;54.406;18.556;2024-01-10T10:01:32;2.10;99.90
20246;DHT22;10281;54.406;18.556;2024-01-10T10:04:00;2.00;99.90
20246;DHT22;10281;54.406;18.556;2024-01-10T10:06:28;2.10;99.90
20246;DHT22;10281;54.406;18.556;2024-01-10T10:08:54;2.10;99.90
20246;DHT22;10281;54.406;18.556;2024-01-10T10:11:21;2.10;99.90
20246;DHT22;10281;54.406;18.556;2024-01-10T10:13:47;2.00;99.90
20246;DHT22;10281;54.406;18.556;2024-01-10T10:16:22;2.10;99.90
20246;DHT22;10281;54.406;18.556;2024-01-10T10:18:45;2.10;99.90
20246;DHT22;10281;54.406;18.556;2024-01-10T10:21:13;2.10;99.90
20246;DHT22;10281;54.406;18.556;2024-01-10T10:23:42;2.00;99.90
20246;DHT22;10281;54.406;18.556;2024-01-10T10:26:14;2.00;99.90
20246;DHT22;10281;54.406;18.556;2024-01-10T10:28:47;1.90;99.90
20246;DHT22;10281;54.406;18.556;2024-01-10T10:31:16;1.90;99.90
20246;DHT22;10281;54.406;18.556;2024-01-10T10:33:43;2.00;99.90
20246;DHT22;10281;54.406;18.556;2024-01-10T10:36:10;2.00;99.90
20246;DHT22;10281;54.406;18.556;2024-01-10T10:38:39;2.10;99.90
20246;DHT22;10281;54.406;18.556;2024-01-10T10:41:06;2.10;99.90
20246;DHT22;10281;54.406;18.556;2024-01-10T10:43:36;2.20;99.90
20246;DHT22;10281;54.406;18.556;2024-01-10T10:46:05;2.20;99.90
20246;DHT22;10281;54.406;18.556;2024-01-10T10:48:33;2.30;99.90
20246;DHT22;10281;54.406;18.556;2024-01-10T10:51:10;2.30;99.90
20246;DHT22;10281;54.406;18.556;2024-01-10T10:53:38;2.20;99.90
20246;DHT22;10281;54.406;18.556;2024-01-10T10:56:07;2.30;99.90
20246;DHT22;10281;54.406;18.556;2024-01-10T10:58:36;2.30;99.90
20246;DHT22;10281;54.406;18.556;2024-01-10T11:01:05;2.30;99.90
20246;DHT22;10281;54.406;18.556;2024-01-10T11:03:37;2.30;99.90
20246;DHT22;10281;54.406;18.556;2024-01-10T11:06:04;2.10;99.90
20246;DHT22;10281;54.406;18.556;2024-01-10T11:08:36;2.10;99.90
20246;DHT22;10281;54.406;18.556;2024-01-10T11:11:06;2.10;99.90
20246;DHT22;10281;54.406;18.556;2024-01-10T11:13:48;2.10;99.90
20246;DHT22;10281;54.406;18.556;2024-01-10T11:16:34;2.20;99.90
20246;DHT22;10281;54.406;18.556;2024-01-10T11:19:14;2.20;99.90
20246;DHT22;10281;54.406;18.556;2024-01-10T11:21:46;2.30;99.90
20246;DHT22;10281;54.406;18.556;2024-01-10T11:24:09;2.30;99.90
20246;DHT22;10281;54.406;18.556;2024-01-10T11:26:37;2.30;99.90
20246;DHT22;10281;54.406;18.556;2024-01-10T11:29:05;2.30;99.90
20246;DHT22;10281;54.406;18.556;2024-01-10T11:31:32;2.30;99.90
20246;DHT22;10281;54.406;18.556;2024-01-10T11:34:01;2.30;99.90
20246;DHT22;10281;54.406;18.556;2024-01-10T11:36:29;2.40;99.90
20246;DHT22;10281;54.406;18.556;2024-01-10T11:39:00;2.40;99.90
20246;DHT22;10281;54.406;18.556;2024-01-10T11:44:27;2.40;99.90
20246;DHT22;10281;54.406;18.556;2024-01-10T11:46:54;2.40;99.90
20246;DHT22;10281;54.406;18.556;2024-01-10T11:49:23;2.40;99.90
20246;DHT22;10281;54.406;18.556;2024-01-10T11:51:52;2.30;99.90
20246;DHT22;10281;54.406;18.556;2024-01-10T11:54:46;2.30;99.90
20246;DHT22;10281;54.406;18.556;2024-01-10T11:57:20;2.30;99.90
20246;DHT22;10281;54.406;18.556;2024-01-10T11:59:50;2.30;99.90
20246;DHT22;10281;54.406;18.556;2024-01-10T12:02:17;2.30;99.90
20246;DHT22;10281;54.406;18.556;2024-01-10T12:04:44;2.40;99.90
20246;DHT22;10281;54.406;18.556;2024-01-10T12:07:12;2.40;99.90
20246;DHT22;10281;54.406;18.556;2024-01-10T12:09:39;2.40;99.90
20246;DHT22;10281;54.406;18.556;2024-01-10T12:12:06;2.40;99.90
20246;DHT22;10281;54.406;18.556;2024-01-10T12:14:34;2.30;99.90
20246;DHT22;10281;54.406;18.556;2024-01-10T12:17:01;2.40;99.90
20246;DHT22;10281;54.406;18.556;2024-01-10T12:19:30;2.40;99.90
20246;DHT22;10281;54.406;18.556;2024-01-10T12:21:57;2.40;99.90
20246;DHT22;10281;54.406;18.556;2024-01-10T12:24:23;2.30;99.90
20246;DHT22;10281;54.406;18.556;2024-01-10T12:26:52;2.20;99.90
20246;DHT22;10281;54.406;18.556;2024-01-10T12:29:20;2.20;99.90
20246;DHT22;10281;54.406;18.556;2024-01-10T12:31:47;2.30;99.90
20246;DHT22;10281;54.406;18.556;2024-01-10T12:34:14;2.30;99.90
20246;DHT22;10281;54.406;18.556;2024-01-10T12:36:41;2.20;99.90
20246;DHT22;10281;54.406;18.556;2024-01-10T12:39:10;2.30;99.90
20246;DHT22;10281;54.406;18.556;2024-01-10T12:41:38;2.40;99.90
20246;DHT22;10281;54.406;18.556;2024-01-10T12:44:06;2.50;99.90
20246;DHT22;10281;54.406;18.556;2024-01-10T12:46:32;2.40;99.90
20246;DHT22;10281;54.406;18.556;2024-01-10T12:49:02;2.40;99.90
20246;DHT22;10281;54.406;18.556;2024-01-10T12:51:30;2.40;99.90
20246;DHT22;10281;54.406;18.556;2024-01-10T12:53:58;2.40;99.90
20246;DHT22;10281;54.406;18.556;2024-01-10T12:56:25;2.40;99.90
20246;DHT22;10281;54.406;18.556;2024-01-10T12:58:53;2.40;99.90
20246;DHT22;10281;54.406;18.556;2024-01-10T13:01:22;2.40;99.90
20246;DHT22;10281;54.406;18.556;2024-01-10T13:03:49;2.30;99.90
20246;DHT22;10281;54.406;18.556;2024-01-10T13:06:16;2.30;99.90
20246;DHT22;10281;54.406;18.556;2024-01-10T13:08:46;2.30;99.90
20246;DHT22;10281;54.406;18.556;2024-01-10T13:11:12;2.40;99.90
20246;DHT22;10281;54.406;18.556;2024-01-10T13:13:41;2.40;99.90
20246;DHT22;10281;54.406;18.556;2024-01-10T13:16:09;2.30;99.90
20246;DHT22;10281;54.406;18.556;2024-01-10T13:18:37;2.30;99.90
20246;DHT22;10281;54.406;18.556;2024-01-10T13:21:04;2.20;99.90
20246;DHT22;10281;54.406;18.556;2024-01-10T13:23:31;2.30;99.90
20246;DHT22;10281;54.406;18.556;2024-01-10T13:25:59;2.30;99.90
20246;DHT22;10281;54.406;18.556;2024-01-10T13:28:26;2.30;99.90
20246;DHT22;10281;54.406;18.556;2024-01-10T13:30:54;2.30;99.90
20246;DHT22;10281;54.406;18.556;2024-01-10T13:33:23;2.30;99.90
20246;DHT22;10281;54.406;18.556;2024-01-10T13:35:51;2.20;99.90
20246;DHT22;10281;54.406;18.556;2024-01-10T13:38:18;2.30;99.90
20246;DHT22;10281;54.406;18.556;2024-01-10T13:40:45;2.20;99.90
20246;DHT22;10281;54.406;18.556;2024-01-10T13:43:12;2.20;99.90
20246;DHT22;10281;54.406;18.556;2024-01-10T13:45:38;2.20;99.90
20246;DHT22;10281;54.406;18.556;2024-01-10T13:48:05;2.20;99.90
20246;DHT22;10281;54.406;18.556;2024-01-10T13:50:32;2.10;99.90
20246;DHT22;10281;54.406;18.556;2024-01-10T13:52:59;2.10;99.90
20246;DHT22;10281;54.406;18.556;2024-01-10T13:55:25;2.20;99.90
20246;DHT22;10281;54.406;18.556;2024-01-10T13:57:52;2.20;99.90
20246;DHT22;10281;54.406;18.556;2024-01-10T14:00:20;2.10;99.90
20246;DHT22;10281;54.406;18.556;2024-01-10T14:02:46;2.10;99.90
20246;DHT22;10281;54.406;18.556;2024-01-10T14:05:13;2.10;99.90
20246;DHT22;10281;54.406;18.556;2024-01-10T14:07:40;2.10;99.90
20246;DHT22;10281;54.406;18.556;2024-01-10T14:10:09;2.10;99.90
20246;DHT22;10281;54.406;18.556;2024-01-10T14:12:37;2.10;99.90
20246;DHT22;10281;54.406;18.556;2024-01-10T14:15:04;2.10;99.90
20246;DHT22;10281;54.406;18.556;2024-01-10T14:17:31;2.10;99.90
20246;DHT22;10281;54.406;18.556;2024-01-10T14:19:57;2.10;99.90
20246;DHT22;10281;54.406;18.556;2024-01-10T14:22:25;2.10;99.90
20246;DHT22;10281;54.406;18.556;2024-01-10T14:24:52;2.10;99.90
20246;DHT22;10281;54.406;18.556;2024-01-10T14:27:20;2.10;99.90
20246;DHT22;10281;54.406;18.556;2024-01-10T14:29:47;2.10;99.90
20246;DHT22;10281;54.406;18.556;2024-01-10T14:32:14;2.00;99.90
20246;DHT22;10281;54.406;18.556;2024-01-10T14:34:41;2.10;99.90
20246;DHT22;10281;54.406;18.556;2024-01-10T14:37:08;2.00;99.90
20246;DHT22;10281;54.406;18.556;2024-01-10T14:39:35;2.10;99.90
20246;DHT22;10281;54.406;18.556;2024-01-10T14:42:06;2.10;99.90
20246;DHT22;10281;54.406;18.556;2024-01-10T14:44:35;2.10;99.90
20246;DHT22;10281;54.406;18.556;2024-01-10T14:47:01;2.00;99.90
20246;DHT22;10281;54.406;18.556;2024-01-10T14:49:29;2.00;99.90
20246;DHT22;10281;54.406;18.556;2024-01-10T14:51:57;2.00;99.90
20246;DHT22;10281;54.406;18.556;2024-01-10T14:54:24;2.00;99.90
20246;DHT22;10281;54.406;18.556;2024-01-10T14:56:50;2.10;99.90
20246;DHT22;10281;54.406;18.556;2024-01-10T14:59:18;2.00;99.90
20246;DHT22;10281;54.406;18.556;2024-01-10T15:01:45;2.10;99.90
20246;DHT22;10281;54.406;18.556;2024-01-10T15:04:13;2.10;99.90
20246;DHT22;10281;54.406;18.556;2024-01-10T15:06:43;2.10;99.90
20246;DHT22;10281;54.406;18.556;2024-01-10T15:09:10;2.10;99.90
20246;DHT22;10281;54.406;18.556;2024-01-10T15:11:39;2.10;99.90
20246;DHT22;10281;54.406;18.556;2024-01-10T15:14:08;2.10;99.90
20246;DHT22;10281;54.406;18.556;2024-01-10T15:16:35;2.10;99.90
20246;DHT22;10281;54.406;18.556;2024-01-10T15:19:02;2.10;99.90
20246;DHT22;10281;54.406;18.556;2024-01-10T15:21:29;2.10;99.90
20246;DHT22;10281;54.406;18.556;2024-01-10T15:23:56;2.10;99.90
20246;DHT22;10281;54.406;18.556;2024-01-10T15:26:23;2.10;99.90
20246;DHT22;10281;54.406;18.556;2024-01-10T15:28:50;2.10;99.90
20246;DHT22;10281;54.406;18.556;2024-01-10T15:31:19;2.10;99.90
20246;DHT22;10281;54.406;18.556;2024-01-10T15:33:46;2.10;99.90
20246;DHT22;10281;54.406;18.556;2024-01-10T15:36:13;2.10;99.90